Last 24 Hours

OV-Siberia 8700'

Hourly Data | America/Los_Angeles
as of 9/4/26 8:20 PM PDT
Date & Time Temp (°F) RH (%) Dew Pt (°F) Wet Bulb (°F) Wind Dir (°) Wind Spd (mph) Wind Gust (mph) WindChill (°F) Daily Min Temp (°F) Daily Max Temp (°F)
9/4/26 - 2000 37.4 100 37.4 37.4 N | 0 0.4 2.2 37.8 37.4 40.6
9/4/26 - 1900 38.0 100 38.0 38.0 N | 0 0.3 2.3 38.3 37.5 40.6
9/4/26 - 1800 38.5 100 38.5 38.5 N | 0 0.4 2.2 38.7 37.5 40.6
9/4/26 - 1700 38.9 100 38.9 38.9 N | 0 0.4 2.3 39.4 37.5 40.6
9/4/26 - 1600 39.7 100 39.7 39.7 N | 0 0.3 1.9 39.8 37.5 40.6
9/4/26 - 1500 39.8 100 39.8 39.8 N | 0 0.3 2.1 39.5 37.5 40.2
9/4/26 - 1400 39.1 100 39.1 39.1 N | 0 0.4 2.1 38.9 37.5 39.6
9/4/26 - 1300 38.5 100 38.5 38.5 N | 0 0.3 2.1 38.3 37.5 39.2
9/4/26 - 1200 38.4 100 38.4 38.4 N | 0 0.4 2.2 38.1 37.5 39.2
9/4/26 - 1100 37.9 100 37.9 37.9 N | 0 0.4 2.2 37.7 37.5 39.2
9/4/26 - 1000 37.7 100 37.7 37.7 N | 0 0.4 2.1 38.2 37.6 39.2
9/4/26 - 0900 38.4 100 38.4 38.4 N | 0 0.4 2.4 38.5 37.8 39.2
9/4/26 - 0800 38.1 100 38.1 38.1 N | 0 0.4 2.2 38.1 37.8 39.2
9/4/26 - 0700 38.0 100 38.0 38.0 N | 0 0.3 2.2 38.0 37.8 39.2
9/4/26 - 0600 38.1 100 38.1 38.1 N | 0 0.3 2.0 38.2 37.8 39.2
9/4/26 - 0500 38.4 100 38.4 38.4 N | 0 0.3 2.2 38.4 37.8 39.2
9/4/26 - 0400 38.4 100 38.4 38.4 N | 0 0.4 2.1 38.1 37.8 39.2
9/4/26 - 0300 38.0 100 38.0 38.0 N | 0 0.3 2.2 38.2 37.9 39.2
9/4/26 - 0200 38.2 100 38.2 38.2 N | 0 0.3 2.0 38.7 38.0 39.2
9/4/26 - 0100 39.0 100 39.0 39.0 N | 0 0.3 2.2 38.8 38.6 39.1
9/4/26 - 0000 38.7 100 38.7 38.7 N | 0 0.3 1.8 38.6 35.6 40.7
9/3/26 - 2300 39.0 100 38.9 39.0 N | 0 0.3 1.8 38.7 35.6 40.7
9/3/26 - 2200 38.6 100 38.5 38.5 N | 0 0.3 1.8 38.3 35.6 40.7
9/3/26 - 2100 38.1 100 38.0 38.0 N | 0 0.3 2.1 38.2 35.6 40.7
9/3/26 - 2000 38.3 100 38.2 38.3 N | 0 0.3 2.1 38.0 35.6 40.7
Max 39.8 100 39.8 39.8 - 0.4 2.4 39.8 38.6 40.7
Avg 38.4 100 38.4 38.4 - 0.3 2.1 38.5 - -
Min 37.4 100 37.4 37.4 - 0.3 1.8 37.7 35.6 39.1